Weather at Cleveland Municipal Airport

Public forecast

Using degrees Fahrenheit for public forecast. Weather courtesy of forecast.io.

Current aviation weather report (METAR) for Cleveland Municipal Airport

Retrieved 2020/10/29 12:35 UTC (22 minutes ago):

K6R3 291235Z AUTO 00000KT 7SM CLR 05/05 A2999 RMK AO2 T00500050

Closest aviation forecast (TAF) to Cleveland Municipal Airport

Closest forecast is Conroe-North Houston Regional Airport, 21.1 nm (39.0 km) W. Retrieved 2020/10/29 12:22 UTC (35 minutes ago):

TAF KCXO 291120Z 2912/3012 29007KT P6SM SKC FM291400 32013G23KT P6SM SKC FM291800 32014G24KT P6SM SCT035 FM300100 35010KT P6SM FEW030 FM300600 34006KT P6SM SKC